sensor_id;sensor_type;location;lat;lon;timestamp;P1;durP1;ratioP1;P2;durP2;ratioP2
49440;SDS011;35317;51.978;6.296;2023-02-16T00:04:49;79.15;;;40.92;;
49440;SDS011;35317;51.978;6.296;2023-02-16T00:09:50;83.72;;;40.70;;
49440;SDS011;35317;51.978;6.296;2023-02-16T00:14:51;78.38;;;40.75;;
49440;SDS011;35317;51.978;6.296;2023-02-16T00:19:52;81.95;;;40.83;;
49440;SDS011;35317;51.978;6.296;2023-02-16T00:24:52;78.78;;;39.88;;
49440;SDS011;35317;51.978;6.296;2023-02-16T00:29:53;84.22;;;44.00;;
49440;SDS011;35317;51.978;6.296;2023-02-16T00:34:54;80.82;;;43.42;;
49440;SDS011;35317;51.978;6.296;2023-02-16T00:39:55;92.22;;;44.72;;
49440;SDS011;35317;51.978;6.296;2023-02-16T00:44:56;83.93;;;43.90;;
49440;SDS011;35317;51.978;6.296;2023-02-16T00:49:58;80.90;;;40.95;;
49440;SDS011;35317;51.978;6.296;2023-02-16T00:54:59;83.47;;;42.40;;
49440;SDS011;35317;51.978;6.296;2023-02-16T01:00:25;84.82;;;41.60;;
49440;SDS011;35317;51.978;6.296;2023-02-16T01:05:30;82.00;;;42.53;;
49440;SDS011;35317;51.978;6.296;2023-02-16T01:10:30;82.50;;;41.15;;
49440;SDS011;35317;51.978;6.296;2023-02-16T01:16:14;80.95;;;40.85;;
49440;SDS011;35317;51.978;6.296;2023-02-16T01:21:36;78.78;;;40.33;;
49440;SDS011;35317;51.978;6.296;2023-02-16T01:26:39;81.65;;;40.78;;
49440;SDS011;35317;51.978;6.296;2023-02-16T01:31:43;82.60;;;42.28;;
49440;SDS011;35317;51.978;6.296;2023-02-16T01:36:45;88.97;;;45.42;;
49440;SDS011;35317;51.978;6.296;2023-02-16T01:42:07;81.63;;;42.83;;
49440;SDS011;35317;51.978;6.296;2023-02-16T01:47:31;85.18;;;43.58;;
49440;SDS011;35317;51.978;6.296;2023-02-16T01:52:56;90.40;;;43.13;;
49440;SDS011;35317;51.978;6.296;2023-02-16T01:58:22;92.38;;;43.65;;
49440;SDS011;35317;51.978;6.296;2023-02-16T02:03:34;87.78;;;43.50;;
49440;SDS011;35317;51.978;6.296;2023-02-16T02:08:55;89.70;;;43.97;;
49440;SDS011;35317;51.978;6.296;2023-02-16T02:14:06;87.60;;;43.97;;
49440;SDS011;35317;51.978;6.296;2023-02-16T02:19:13;94.15;;;47.05;;
49440;SDS011;35317;51.978;6.296;2023-02-16T02:24:26;96.15;;;45.40;;
49440;SDS011;35317;51.978;6.296;2023-02-16T02:30:22;98.38;;;46.75;;
49440;SDS011;35317;51.978;6.296;2023-02-16T02:47:08;98.70;;;47.92;;
49440;SDS011;35317;51.978;6.296;2023-02-16T02:52:09;98.30;;;49.35;;
49440;SDS011;35317;51.978;6.296;2023-02-16T02:57:12;99.10;;;49.50;;
49440;SDS011;35317;51.978;6.296;2023-02-16T03:03:00;104.28;;;50.33;;
49440;SDS011;35317;51.978;6.296;2023-02-16T03:08:10;112.55;;;55.00;;
49440;SDS011;35317;51.978;6.296;2023-02-16T03:13:21;107.05;;;52.38;;
49440;SDS011;35317;51.978;6.296;2023-02-16T03:18:27;111.55;;;53.65;;
49440;SDS011;35317;51.978;6.296;2023-02-16T03:23:50;105.07;;;52.63;;
49440;SDS011;35317;51.978;6.296;2023-02-16T03:29:10;107.20;;;50.22;;
49440;SDS011;35317;51.978;6.296;2023-02-16T03:34:20;102.03;;;51.22;;
49440;SDS011;35317;51.978;6.296;2023-02-16T03:39:21;96.53;;;50.03;;
49440;SDS011;35317;51.978;6.296;2023-02-16T03:44:22;101.07;;;49.97;;
49440;SDS011;35317;51.978;6.296;2023-02-16T03:49:23;94.50;;;48.45;;
49440;SDS011;35317;51.978;6.296;2023-02-16T03:54:24;97.70;;;49.28;;
49440;SDS011;35317;51.978;6.296;2023-02-16T03:59:25;96.95;;;49.20;;
49440;SDS011;35317;51.978;6.296;2023-02-16T04:04:26;91.68;;;48.03;;
49440;SDS011;35317;51.978;6.296;2023-02-16T04:09:26;101.88;;;50.53;;
49440;SDS011;35317;51.978;6.296;2023-02-16T04:14:27;94.22;;;48.20;;
49440;SDS011;35317;51.978;6.296;2023-02-16T04:19:28;106.18;;;51.60;;
49440;SDS011;35317;51.978;6.296;2023-02-16T04:24:29;90.43;;;46.42;;
49440;SDS011;35317;51.978;6.296;2023-02-16T04:29:30;87.68;;;46.42;;
49440;SDS011;35317;51.978;6.296;2023-02-16T04:34:31;91.47;;;45.75;;
49440;SDS011;35317;51.978;6.296;2023-02-16T04:39:32;95.85;;;46.55;;
49440;SDS011;35317;51.978;6.296;2023-02-16T04:44:33;90.20;;;46.30;;
49440;SDS011;35317;51.978;6.296;2023-02-16T04:49:34;92.15;;;46.25;;
49440;SDS011;35317;51.978;6.296;2023-02-16T04:54:34;89.03;;;45.92;;
49440;SDS011;35317;51.978;6.296;2023-02-16T04:59:35;90.93;;;47.13;;
49440;SDS011;35317;51.978;6.296;2023-02-16T05:04:36;103.28;;;48.40;;
49440;SDS011;35317;51.978;6.296;2023-02-16T05:09:37;93.68;;;46.88;;
49440;SDS011;35317;51.978;6.296;2023-02-16T05:14:38;89.30;;;45.42;;
49440;SDS011;35317;51.978;6.296;2023-02-16T05:19:42;92.90;;;45.40;;
49440;SDS011;35317;51.978;6.296;2023-02-16T05:24:45;82.60;;;44.85;;
49440;SDS011;35317;51.978;6.296;2023-02-16T05:29:46;93.40;;;46.47;;
49440;SDS011;35317;51.978;6.296;2023-02-16T05:34:47;89.80;;;45.53;;
49440;SDS011;35317;51.978;6.296;2023-02-16T05:39:48;87.03;;;44.95;;
49440;SDS011;35317;51.978;6.296;2023-02-16T05:44:49;90.05;;;45.35;;
49440;SDS011;35317;51.978;6.296;2023-02-16T05:49:50;90.03;;;46.70;;
49440;SDS011;35317;51.978;6.296;2023-02-16T05:54:50;94.43;;;45.95;;
49440;SDS011;35317;51.978;6.296;2023-02-16T05:59:51;95.55;;;47.53;;
49440;SDS011;35317;51.978;6.296;2023-02-16T06:04:52;93.63;;;46.35;;
49440;SDS011;35317;51.978;6.296;2023-02-16T06:09:52;91.50;;;46.08;;
49440;SDS011;35317;51.978;6.296;2023-02-16T06:14:53;90.25;;;45.90;;
49440;SDS011;35317;51.978;6.296;2023-02-16T06:19:55;94.20;;;45.95;;
49440;SDS011;35317;51.978;6.296;2023-02-16T06:24:55;94.97;;;46.55;;
49440;SDS011;35317;51.978;6.296;2023-02-16T06:29:56;93.38;;;46.58;;
49440;SDS011;35317;51.978;6.296;2023-02-16T06:34:57;86.32;;;46.08;;
49440;SDS011;35317;51.978;6.296;2023-02-16T06:39:58;84.45;;;44.05;;
49440;SDS011;35317;51.978;6.296;2023-02-16T06:44:58;89.93;;;46.25;;
49440;SDS011;35317;51.978;6.296;2023-02-16T06:49:59;88.95;;;47.58;;
49440;SDS011;35317;51.978;6.296;2023-02-16T06:55:00;91.43;;;45.10;;
49440;SDS011;35317;51.978;6.296;2023-02-16T07:00:02;90.78;;;46.80;;
49440;SDS011;35317;51.978;6.296;2023-02-16T07:05:05;94.18;;;45.75;;
49440;SDS011;35317;51.978;6.296;2023-02-16T07:10:06;84.93;;;42.83;;
49440;SDS011;35317;51.978;6.296;2023-02-16T07:15:08;81.00;;;42.40;;
49440;SDS011;35317;51.978;6.296;2023-02-16T07:20:09;74.00;;;41.03;;
49440;SDS011;35317;51.978;6.296;2023-02-16T07:25:11;80.18;;;42.50;;
49440;SDS011;35317;51.978;6.296;2023-02-16T07:30:12;77.55;;;41.10;;
49440;SDS011;35317;51.978;6.296;2023-02-16T07:35:15;76.38;;;40.90;;
49440;SDS011;35317;51.978;6.296;2023-02-16T07:40:16;73.03;;;38.88;;
49440;SDS011;35317;51.978;6.296;2023-02-16T07:45:17;71.65;;;38.60;;
49440;SDS011;35317;51.978;6.296;2023-02-16T07:50:17;70.85;;;38.38;;
49440;SDS011;35317;51.978;6.296;2023-02-16T07:55:18;73.40;;;40.08;;
49440;SDS011;35317;51.978;6.296;2023-02-16T08:00:19;69.53;;;38.95;;
49440;SDS011;35317;51.978;6.296;2023-02-16T08:05:21;80.80;;;39.28;;
49440;SDS011;35317;51.978;6.296;2023-02-16T08:10:22;67.18;;;37.90;;
49440;SDS011;35317;51.978;6.296;2023-02-16T08:15:23;67.80;;;36.70;;
49440;SDS011;35317;51.978;6.296;2023-02-16T08:20:23;67.97;;;39.53;;
49440;SDS011;35317;51.978;6.296;2023-02-16T08:25:24;60.15;;;35.45;;
49440;SDS011;35317;51.978;6.296;2023-02-16T08:30:25;64.28;;;37.17;;
49440;SDS011;35317;51.978;6.296;2023-02-16T08:35:27;64.90;;;38.00;;
49440;SDS011;35317;51.978;6.296;2023-02-16T08:40:29;68.63;;;37.63;;
49440;SDS011;35317;51.978;6.296;2023-02-16T08:45:30;67.10;;;36.38;;
49440;SDS011;35317;51.978;6.296;2023-02-16T08:50:31;66.47;;;36.75;;
49440;SDS011;35317;51.978;6.296;2023-02-16T08:55:32;68.68;;;38.15;;
49440;SDS011;35317;51.978;6.296;2023-02-16T09:00:33;60.67;;;35.22;;
49440;SDS011;35317;51.978;6.296;2023-02-16T09:05:34;63.15;;;36.53;;
49440;SDS011;35317;51.978;6.296;2023-02-16T09:10:35;61.22;;;35.17;;
49440;SDS011;35317;51.978;6.296;2023-02-16T09:15:36;61.85;;;35.63;;
49440;SDS011;35317;51.978;6.296;2023-02-16T09:20:40;58.17;;;35.10;;
49440;SDS011;35317;51.978;6.296;2023-02-16T09:25:42;67.95;;;37.25;;
49440;SDS011;35317;51.978;6.296;2023-02-16T09:30:43;63.78;;;36.42;;
49440;SDS011;35317;51.978;6.296;2023-02-16T09:35:44;62.20;;;35.55;;
49440;SDS011;35317;51.978;6.296;2023-02-16T09:40:45;64.13;;;37.25;;
49440;SDS011;35317;51.978;6.296;2023-02-16T09:45:46;63.85;;;36.55;;
49440;SDS011;35317;51.978;6.296;2023-02-16T09:50:50;62.17;;;36.33;;
49440;SDS011;35317;51.978;6.296;2023-02-16T10:01:40;61.95;;;36.13;;
49440;SDS011;35317;51.978;6.296;2023-02-16T10:06:59;64.53;;;36.60;;
49440;SDS011;35317;51.978;6.296;2023-02-16T10:12:24;66.82;;;37.95;;
49440;SDS011;35317;51.978;6.296;2023-02-16T10:17:36;64.28;;;38.25;;
49440;SDS011;35317;51.978;6.296;2023-02-16T10:22:46;67.93;;;38.10;;
49440;SDS011;35317;51.978;6.296;2023-02-16T10:27:58;66.72;;;37.00;;
49440;SDS011;35317;51.978;6.296;2023-02-16T10:33:24;68.10;;;39.75;;
49440;SDS011;35317;51.978;6.296;2023-02-16T10:38:43;63.25;;;37.45;;
49440;SDS011;35317;51.978;6.296;2023-02-16T10:44:10;61.67;;;36.17;;
49440;SDS011;35317;51.978;6.296;2023-02-16T10:49:19;59.72;;;37.63;;
49440;SDS011;35317;51.978;6.296;2023-02-16T10:54:25;67.82;;;39.08;;
49440;SDS011;35317;51.978;6.296;2023-02-16T10:59:38;71.95;;;39.17;;
49440;SDS011;35317;51.978;6.296;2023-02-16T11:04:46;67.72;;;39.90;;
49440;SDS011;35317;51.978;6.296;2023-02-16T11:09:52;69.75;;;40.40;;
49440;SDS011;35317;51.978;6.296;2023-02-16T11:14:57;75.47;;;43.33;;
49440;SDS011;35317;51.978;6.296;2023-02-16T11:20:31;72.80;;;40.72;;
49440;SDS011;35317;51.978;6.296;2023-02-16T11:25:33;66.53;;;39.42;;
49440;SDS011;35317;51.978;6.296;2023-02-16T11:30:35;67.30;;;41.55;;
49440;SDS011;35317;51.978;6.296;2023-02-16T11:35:40;69.57;;;40.25;;
49440;SDS011;35317;51.978;6.296;2023-02-16T11:40:42;67.82;;;40.65;;
49440;SDS011;35317;51.978;6.296;2023-02-16T11:45:55;71.68;;;42.42;;
49440;SDS011;35317;51.978;6.296;2023-02-16T11:51:28;75.50;;;44.33;;
49440;SDS011;35317;51.978;6.296;2023-02-16T11:56:33;77.25;;;45.33;;
49440;SDS011;35317;51.978;6.296;2023-02-16T12:07:07;85.60;;;46.67;;
49440;SDS011;35317;51.978;6.296;2023-02-16T12:12:42;80.00;;;47.28;;
49440;SDS011;35317;51.978;6.296;2023-02-16T12:40:06;80.10;;;46.67;;
49440;SDS011;35317;51.978;6.296;2023-02-16T12:45:32;89.40;;;50.25;;
49440;SDS011;35317;51.978;6.296;2023-02-16T12:50:38;82.95;;;48.17;;
49440;SDS011;35317;51.978;6.296;2023-02-16T12:55:45;85.45;;;48.97;;
49440;SDS011;35317;51.978;6.296;2023-02-16T13:00:52;84.90;;;48.85;;
49440;SDS011;35317;51.978;6.296;2023-02-16T13:06:19;79.82;;;47.47;;
49440;SDS011;35317;51.978;6.296;2023-02-16T13:12:04;76.40;;;45.70;;
49440;SDS011;35317;51.978;6.296;2023-02-16T13:17:35;76.38;;;44.33;;
49440;SDS011;35317;51.978;6.296;2023-02-16T13:49:54;70.72;;;42.20;;
49440;SDS011;35317;51.978;6.296;2023-02-16T13:55:03;65.38;;;40.85;;
49440;SDS011;35317;51.978;6.296;2023-02-16T14:00:53;64.53;;;42.08;;
49440;SDS011;35317;51.978;6.296;2023-02-16T14:05:51;57.17;;;35.65;;
49440;SDS011;35317;51.978;6.296;2023-02-16T14:11:02;63.78;;;38.70;;
49440;SDS011;35317;51.978;6.296;2023-02-16T14:16:08;56.75;;;34.83;;
49440;SDS011;35317;51.978;6.296;2023-02-16T14:26:49;58.00;;;34.15;;
49440;SDS011;35317;51.978;6.296;2023-02-16T14:37:26;53.80;;;34.20;;
49440;SDS011;35317;51.978;6.296;2023-02-16T14:42:31;59.58;;;34.83;;
49440;SDS011;35317;51.978;6.296;2023-02-16T14:47:36;53.40;;;32.97;;
49440;SDS011;35317;51.978;6.296;2023-02-16T14:58:28;52.90;;;33.03;;
49440;SDS011;35317;51.978;6.296;2023-02-16T15:03:52;47.45;;;30.77;;
49440;SDS011;35317;51.978;6.296;2023-02-16T15:08:56;50.75;;;32.38;;
49440;SDS011;35317;51.978;6.296;2023-02-16T15:14:07;51.15;;;31.25;;
49440;SDS011;35317;51.978;6.296;2023-02-16T15:19:13;44.85;;;28.42;;
49440;SDS011;35317;51.978;6.296;2023-02-16T15:24:21;49.58;;;30.05;;
49440;SDS011;35317;51.978;6.296;2023-02-16T15:29:24;45.42;;;29.77;;
49440;SDS011;35317;51.978;6.296;2023-02-16T15:34:33;47.78;;;29.75;;
49440;SDS011;35317;51.978;6.296;2023-02-16T15:39:34;46.40;;;28.20;;
49440;SDS011;35317;51.978;6.296;2023-02-16T15:44:35;44.83;;;29.30;;
49440;SDS011;35317;51.978;6.296;2023-02-16T15:49:38;44.55;;;28.67;;
49440;SDS011;35317;51.978;6.296;2023-02-16T15:54:39;46.38;;;29.13;;
49440;SDS011;35317;51.978;6.296;2023-02-16T15:59:44;43.28;;;28.75;;
49440;SDS011;35317;51.978;6.296;2023-02-16T16:04:59;45.80;;;29.13;;
49440;SDS011;35317;51.978;6.296;2023-02-16T16:10:09;47.60;;;31.02;;
49440;SDS011;35317;51.978;6.296;2023-02-16T16:15:24;49.15;;;30.27;;
49440;SDS011;35317;51.978;6.296;2023-02-16T16:20:29;50.13;;;30.52;;
49440;SDS011;35317;51.978;6.296;2023-02-16T16:30:43;49.05;;;32.00;;
49440;SDS011;35317;51.978;6.296;2023-02-16T16:35:46;52.63;;;33.60;;
49440;SDS011;35317;51.978;6.296;2023-02-16T16:40:59;55.55;;;34.10;;
49440;SDS011;35317;51.978;6.296;2023-02-16T16:56:33;50.65;;;30.83;;
49440;SDS011;35317;51.978;6.296;2023-02-16T17:01:36;51.75;;;31.95;;
49440;SDS011;35317;51.978;6.296;2023-02-16T17:06:37;50.15;;;31.15;;
49440;SDS011;35317;51.978;6.296;2023-02-16T17:11:38;52.83;;;32.20;;
49440;SDS011;35317;51.978;6.296;2023-02-16T17:16:40;54.13;;;32.42;;
49440;SDS011;35317;51.978;6.296;2023-02-16T17:21:47;51.13;;;31.05;;
49440;SDS011;35317;51.978;6.296;2023-02-16T17:26:48;47.70;;;31.88;;
49440;SDS011;35317;51.978;6.296;2023-02-16T17:31:49;52.70;;;32.28;;
49440;SDS011;35317;51.978;6.296;2023-02-16T17:36:49;53.53;;;32.30;;
49440;SDS011;35317;51.978;6.296;2023-02-16T17:41:51;51.65;;;33.60;;
49440;SDS011;35317;51.978;6.296;2023-02-16T17:46:52;58.78;;;35.92;;
49440;SDS011;35317;51.978;6.296;2023-02-16T17:51:53;65.25;;;38.17;;
49440;SDS011;35317;51.978;6.296;2023-02-16T17:56:54;81.50;;;45.45;;
49440;SDS011;35317;51.978;6.296;2023-02-16T18:01:55;67.13;;;41.20;;
49440;SDS011;35317;51.978;6.296;2023-02-16T18:06:56;78.07;;;44.58;;
49440;SDS011;35317;51.978;6.296;2023-02-16T18:11:57;73.32;;;43.30;;
49440;SDS011;35317;51.978;6.296;2023-02-16T18:16:57;72.28;;;42.65;;
49440;SDS011;35317;51.978;6.296;2023-02-16T18:21:59;75.35;;;44.90;;
49440;SDS011;35317;51.978;6.296;2023-02-16T18:27:00;76.40;;;42.13;;
49440;SDS011;35317;51.978;6.296;2023-02-16T18:32:01;75.53;;;42.00;;
49440;SDS011;35317;51.978;6.296;2023-02-16T18:37:02;77.78;;;42.17;;
49440;SDS011;35317;51.978;6.296;2023-02-16T18:42:03;64.05;;;38.28;;
49440;SDS011;35317;51.978;6.296;2023-02-16T18:47:03;61.17;;;37.40;;
49440;SDS011;35317;51.978;6.296;2023-02-16T18:52:04;64.95;;;38.63;;
49440;SDS011;35317;51.978;6.296;2023-02-16T18:57:05;58.15;;;34.75;;
49440;SDS011;35317;51.978;6.296;2023-02-16T19:02:06;54.42;;;31.48;;
49440;SDS011;35317;51.978;6.296;2023-02-16T19:07:07;52.85;;;32.17;;
49440;SDS011;35317;51.978;6.296;2023-02-16T19:12:07;51.08;;;33.17;;
49440;SDS011;35317;51.978;6.296;2023-02-16T19:17:08;55.40;;;30.27;;
49440;SDS011;35317;51.978;6.296;2023-02-16T19:22:09;52.72;;;31.20;;
49440;SDS011;35317;51.978;6.296;2023-02-16T19:27:10;61.65;;;31.73;;
49440;SDS011;35317;51.978;6.296;2023-02-16T19:32:11;54.75;;;31.38;;
49440;SDS011;35317;51.978;6.296;2023-02-16T19:37:11;54.33;;;31.95;;
49440;SDS011;35317;51.978;6.296;2023-02-16T19:42:12;50.65;;;31.13;;
49440;SDS011;35317;51.978;6.296;2023-02-16T19:47:13;49.80;;;31.30;;
49440;SDS011;35317;51.978;6.296;2023-02-16T19:52:14;64.18;;;36.65;;
49440;SDS011;35317;51.978;6.296;2023-02-16T19:57:16;58.60;;;34.88;;
49440;SDS011;35317;51.978;6.296;2023-02-16T20:02:16;60.22;;;36.45;;
49440;SDS011;35317;51.978;6.296;2023-02-16T20:07:17;61.47;;;37.13;;
49440;SDS011;35317;51.978;6.296;2023-02-16T20:12:18;65.85;;;37.53;;
49440;SDS011;35317;51.978;6.296;2023-02-16T20:17:20;62.22;;;38.00;;
49440;SDS011;35317;51.978;6.296;2023-02-16T20:22:20;64.22;;;37.35;;
49440;SDS011;35317;51.978;6.296;2023-02-16T20:27:21;61.22;;;38.50;;
49440;SDS011;35317;51.978;6.296;2023-02-16T20:32:25;65.50;;;40.13;;
49440;SDS011;35317;51.978;6.296;2023-02-16T20:37:26;64.75;;;39.55;;
49440;SDS011;35317;51.978;6.296;2023-02-16T20:42:27;65.28;;;40.28;;
49440;SDS011;35317;51.978;6.296;2023-02-16T20:47:28;60.70;;;38.97;;
49440;SDS011;35317;51.978;6.296;2023-02-16T20:52:29;61.25;;;38.05;;
49440;SDS011;35317;51.978;6.296;2023-02-16T20:57:30;61.65;;;35.88;;
49440;SDS011;35317;51.978;6.296;2023-02-16T21:02:30;56.10;;;36.40;;
49440;SDS011;35317;51.978;6.296;2023-02-16T21:07:31;50.20;;;33.45;;
49440;SDS011;35317;51.978;6.296;2023-02-16T21:12:32;55.78;;;34.70;;
49440;SDS011;35317;51.978;6.296;2023-02-16T21:17:33;55.00;;;33.50;;
49440;SDS011;35317;51.978;6.296;2023-02-16T21:22:34;51.25;;;32.97;;
49440;SDS011;35317;51.978;6.296;2023-02-16T21:27:35;56.30;;;35.47;;
49440;SDS011;35317;51.978;6.296;2023-02-16T21:32:36;52.90;;;35.40;;
49440;SDS011;35317;51.978;6.296;2023-02-16T21:37:37;53.80;;;33.22;;
49440;SDS011;35317;51.978;6.296;2023-02-16T21:42:38;54.33;;;36.28;;
49440;SDS011;35317;51.978;6.296;2023-02-16T21:47:39;58.70;;;36.50;;
49440;SDS011;35317;51.978;6.296;2023-02-16T21:53:01;55.58;;;35.28;;
49440;SDS011;35317;51.978;6.296;2023-02-16T21:58:03;57.58;;;35.28;;
49440;SDS011;35317;51.978;6.296;2023-02-16T22:03:10;59.58;;;36.35;;
49440;SDS011;35317;51.978;6.296;2023-02-16T22:08:12;52.85;;;36.25;;
49440;SDS011;35317;51.978;6.296;2023-02-16T22:13:12;60.10;;;37.08;;
49440;SDS011;35317;51.978;6.296;2023-02-16T22:18:13;58.05;;;38.10;;
49440;SDS011;35317;51.978;6.296;2023-02-16T22:23:14;63.90;;;40.15;;
49440;SDS011;35317;51.978;6.296;2023-02-16T22:28:15;65.07;;;39.85;;
49440;SDS011;35317;51.978;6.296;2023-02-16T22:33:15;61.42;;;38.65;;
49440;SDS011;35317;51.978;6.296;2023-02-16T22:38:16;63.03;;;39.58;;
49440;SDS011;35317;51.978;6.296;2023-02-16T22:43:17;57.10;;;37.88;;
49440;SDS011;35317;51.978;6.296;2023-02-16T22:48:19;55.92;;;36.88;;
49440;SDS011;35317;51.978;6.296;2023-02-16T22:53:20;63.08;;;40.22;;
49440;SDS011;35317;51.978;6.296;2023-02-16T22:58:21;57.45;;;37.65;;
49440;SDS011;35317;51.978;6.296;2023-02-16T23:03:22;61.70;;;39.88;;
49440;SDS011;35317;51.978;6.296;2023-02-16T23:08:26;68.85;;;43.58;;
49440;SDS011;35317;51.978;6.296;2023-02-16T23:13:27;73.55;;;45.75;;
49440;SDS011;35317;51.978;6.296;2023-02-16T23:18:30;75.30;;;47.57;;
49440;SDS011;35317;51.978;6.296;2023-02-16T23:23:30;74.93;;;45.88;;
49440;SDS011;35317;51.978;6.296;2023-02-16T23:28:32;71.78;;;45.63;;
49440;SDS011;35317;51.978;6.296;2023-02-16T23:33:38;73.20;;;46.20;;
49440;SDS011;35317;51.978;6.296;2023-02-16T23:38:42;70.80;;;41.47;;
49440;SDS011;35317;51.978;6.296;2023-02-16T23:43:43;69.70;;;43.05;;
49440;SDS011;35317;51.978;6.296;2023-02-16T23:48:43;71.25;;;41.72;;
49440;SDS011;35317;51.978;6.296;2023-02-16T23:53:44;69.75;;;43.90;;
49440;SDS011;35317;51.978;6.296;2023-02-16T23:58:45;69.93;;;43.17;;
